Latest Weather Observations for Mareeba

IDQ60801

Issued at 6:35 pm EST Sunday 1 February 2015 (issued every 30 minutes, with the page automatically refreshed every 10 minutes)

About weather observations | Map of weather stations | Latest weather observations for QLD | Other Formats
Station Details ID: 031210 Name: MAREEBA AIRPORT Lat: -17.07 Lon: 145.43 Height: 471.93 m
Data from the previous 72 hours. | See also: Recent months at Mareeba
Date/Time
EST
Temp
°C
App
Temp
°C
Dew
Point
Rel
Hum
%
Delta-T
°C
Wind Press
QNH
hPa
Press
MSL
hPa
Rain
since 9 am
mm
Dir
 
Spd
km/h
Gust
km/h
Spd
kts
Gust
kts
01/06:30pm 28.7 27.5 14.1 40 9.0 NNE 13 20 7 11 1008.0 - 0.4
01/06:00pm 29.7 28.2 14.3 39 9.5 NNE 15 22 8 12 1007.8 1004.6 0.4
01/05:30pm 30.1 28.5 16.1 42 8.9 NE 19 30 10 16 1007.3 - 0.4
01/05:00pm 30.6 30.1 17.7 46 8.4 NE 17 26 9 14 1007.0 - 0.4
01/04:30pm 32.8 33.8 17.8 40 9.8 NE 9 15 5 8 1006.8 - 0.4
01/04:00pm 32.4 33.2 16.3 38 10.3 ENE 7 11 4 6 1007.0 - 0.4
01/03:30pm 33.3 34.1 15.8 35 11.2 W 6 13 3 7 1007.2 - 0.4
01/03:00pm 33.3 33.5 15.8 35 11.2 WNW 9 17 5 9 1007.4 1004.2 0.4
01/02:30pm 33.1 33.7 17.7 40 10.1 NW 11 28 6 15 1007.8 - 0.4
01/02:00pm 32.2 33.7 17.7 42 9.5 WSW 6 13 3 7 1008.1 - 0.4
01/01:30pm 32.4 33.3 17.5 41 9.7 NW 9 17 5 9 1008.5 - 0.4
01/01:00pm 31.6 31.9 16.0 39 9.9 WNW 9 19 5 10 1008.9 - 0.4
01/12:30pm 31.1 32.5 15.5 39 9.8 NNW 2 13 1 7 1009.5 - 0.4
01/12:00pm 30.5 30.8 16.1 41 9.2 NNW 9 17 5 9 1009.8 1006.6 0.4
01/11:30am 29.8 29.4 16.2 43 8.6 NNW 13 19 7 10 1010.2 - 0.4
01/11:00am 29.1 30.9 18.2 51 7.1 NW 6 15 3 8 1010.6 - 0.4
01/10:30am 28.4 31.4 21.2 65 4.9 WSW 7 13 4 7 1011.1 - 0.4
01/10:00am 27.6 30.3 20.7 66 4.6 NW 7 13 4 7 1011.4 - 0.4
01/09:30am 26.4 29.1 20.7 71 3.8 NNW 7 9 4 5 1011.5 - 0.4
01/09:00am 26.0 29.0 20.8 73 3.5 NW 6 9 3 5 1011.6 1008.4 27.6
01/08:30am 25.4 29.0 21.3 78 2.8 W 4 7 2 4 1011.4 - 27.6
01/08:00am 25.1 29.8 22.0 83 2.1 CALM 0 2 0 1 1011.2 - 27.6
01/07:30am 23.2 28.2 22.5 96 0.5 CALM 0 6 0 3 1010.9 - 27.6
01/07:00am 22.2 26.9 21.9 98 0.2 CALM 0 0 0 0 1010.7 - 27.6
01/06:30am 21.7 25.9 20.9 95 0.5 CALM 0 0 0 0 1010.4 - 27.6
01/06:00am 21.7 25.8 20.7 94 0.7 CALM 0 0 0 0 1009.9 1006.7 27.6
01/05:30am 22.0 26.2 21.0 94 0.7 CALM 0 0 0 0 1009.7 - 27.6
01/05:00am 22.3 26.1 21.6 96 0.5 SSE 4 7 2 4 1009.6 - 27.6
01/04:30am 22.6 25.9 21.9 96 0.5 ESE 7 7 4 4 1009.2 - 27.6
01/04:00am 22.5 26.6 22.2 98 0.2 ESE 4 7 2 4 1009.3 - 27.6
01/03:30am 22.5 27.4 22.3 99 0.1 CALM 0 0 0 0 1009.3 - 27.6
01/03:00am 22.5 27.3 22.2 98 0.2 CALM 0 0 0 0 1009.6 1006.4 27.6
01/02:30am 22.5 27.0 22.2 98 0.2 E 2 6 1 3 1009.5 - 27.6
01/02:00am 22.4 27.0 21.7 96 0.5 CALM 0 0 0 0 1009.6 - 27.6
01/01:30am 22.8 27.6 22.1 96 0.5 CALM 0 0 0 0 1009.9 - 27.6
01/01:00am 22.9 27.7 22.2 96 0.5 CALM 0 0 0 0 1010.1 - 27.6
01/12:30am 23.0 27.9 22.3 96 0.5 CALM 0 0 0 0 1010.7 - 27.6
01/12:00am 22.9 27.0 22.2 96 0.5 S 4 7 2 4 1011.1 1007.9 27.6
 
Date/Time
EST
Temp
°C
App
Temp
°C
Dew
Point
Rel
Hum
%
Delta-T
°C
Wind Press
QNH
hPa
Press
MSL
hPa
Rain
since 9 am
mm
Dir
 
Spd
km/h
Gust
km/h
Spd
kts
Gust
kts
31/11:30pm 22.9 27.7 22.1 95 0.5 CALM 0 0 0 0 1011.3 - 27.6
31/11:00pm 23.0 27.9 22.3 96 0.5 CALM 0 6 0 3 1011.6 - 27.6
31/10:30pm 22.8 27.5 22.0 95 0.5 CALM 0 6 0 3 1011.4 - 27.6
31/10:00pm 22.6 27.2 21.8 95 0.5 CALM 0 0 0 0 1011.3 - 27.6
31/09:30pm 22.5 27.0 21.5 94 0.7 CALM 0 0 0 0 1011.1 - 27.6
31/09:00pm 22.6 26.3 21.4 93 0.8 NNW 4 9 2 5 1011.1 1007.9 27.6
31/08:30pm 22.8 27.2 21.4 92 0.9 CALM 0 0 0 0 1010.9 - 27.6
31/08:00pm 22.6 25.9 21.4 93 0.8 S 6 7 3 4 1010.4 - 27.6
31/07:30pm 22.5 25.7 21.3 93 0.8 E 6 7 3 4 1009.7 - 27.6
31/07:00pm 22.5 26.9 21.3 93 0.8 CALM 0 2 0 1 1009.3 - 27.6
31/06:30pm 22.6 26.7 21.6 94 0.7 E 2 9 1 5 1009.0 - 27.6
31/06:00pm 22.5 26.6 21.5 94 0.7 E 2 9 1 5 1008.9 1005.7 27.6
31/05:30pm 22.4 25.4 21.2 93 0.8 E 7 11 4 6 1008.5 - 27.6
31/05:00pm 22.1 24.8 21.3 95 0.5 WSW 9 11 5 6 1008.4 - 27.6
31/04:30pm 21.8 25.5 20.8 94 0.7 SE 2 7 1 4 1007.9 - 27.4
31/04:00pm 21.3 20.0 19.9 92 0.9 S 26 43 14 23 1008.5 - 13.4
31/03:59pm 21.4 19.8 20.0 92 0.9 S 28 46 15 25 1008.5 - 12.8
31/03:50pm 23.2 20.1 18.9 77 2.8 S 33 46 18 25 1008.2 - 0.2
31/03:30pm 27.7 29.7 20.8 66 4.6 NNE 11 17 6 9 1007.1 - 0.0
31/03:00pm 27.2 28.6 20.3 66 4.6 NNE 13 19 7 10 1007.3 1004.1 0.0
31/02:30pm 28.5 28.8 19.7 59 5.8 ENE 17 24 9 13 1007.6 - 0.0
31/02:00pm 29.3 29.4 19.9 57 6.3 ENE 19 28 10 15 1007.6 - 0.0
31/01:30pm 32.9 32.6 18.3 42 9.6 WSW 17 26 9 14 1007.3 - 0.0
31/01:00pm 33.1 33.4 20.3 47 8.7 W 19 26 10 14 1007.5 - 0.0
31/12:30pm 31.8 31.1 18.7 45 8.7 W 20 32 11 17 1008.0 - 0.0
31/12:00pm 31.8 32.2 19.8 49 8.1 W 17 28 9 15 1008.4 1005.2 0.0
31/11:30am 30.6 31.0 19.9 52 7.2 W 17 26 9 14 1009.0 - 0.0
31/11:00am 30.6 31.3 20.5 54 6.8 WNW 17 26 9 14 1009.6 - 0.0
31/10:30am 29.2 30.4 19.8 57 6.3 WNW 13 22 7 12 1009.9 - 0.0
31/10:00am 28.5 30.6 20.2 60 5.5 W 9 15 5 8 1010.1 - 0.0
31/09:30am 27.2 28.4 20.0 64 4.8 W 13 20 7 11 1010.4 - 0.0
31/09:00am 27.5 30.3 20.8 67 4.5 WSW 7 17 4 9 1010.5 1007.3 0.0
31/08:30am 26.3 29.7 19.4 66 4.5 CALM 0 7 0 4 1010.6 - 0.0
31/08:00am 25.8 29.5 19.9 70 3.9 CALM 0 0 0 0 1010.7 - 0.0
31/07:30am 23.9 27.5 19.8 78 2.7 CALM 0 0 0 0 1010.5 - 0.0
31/07:00am 22.9 26.5 19.7 82 2.1 CALM 0 2 0 1 1010.2 - 0.0
31/06:30am 22.1 25.6 19.6 86 1.6 CALM 0 0 0 0 1010.2 - 0.0
31/06:00am 21.9 24.6 19.5 86 1.6 SSE 4 7 2 4 1009.9 1006.7 0.0
31/05:30am 22.3 24.2 19.7 85 1.7 S 9 11 5 6 1009.7 - 0.0
31/05:00am 22.4 23.8 19.6 84 1.8 SSE 11 13 6 7 1009.5 - 0.0
31/04:30am 22.6 24.0 19.6 83 2.0 SSE 11 15 6 8 1009.4 - 0.0
31/04:00am 22.6 23.7 19.6 83 2.0 SSE 13 19 7 10 1009.2 - 0.0
31/03:30am 22.7 24.9 20.4 87 1.5 SSE 9 13 5 7 1009.3 - 0.0
31/03:00am 22.5 26.2 20.8 90 1.1 S 2 6 1 3 1009.4 1006.2 0.0
31/02:30am 22.4 25.6 20.5 89 1.3 SSW 4 7 2 4 1009.4 - 0.0
31/02:00am 22.6 26.6 20.5 88 1.4 CALM 0 0 0 0 1009.2 - 0.0
31/01:30am 22.5 26.0 20.4 88 1.4 W 2 6 1 3 1009.6 - 0.0
31/01:00am 22.5 25.7 20.6 89 1.3 W 4 7 2 4 1009.7 - 0.0
31/12:30am 22.8 26.3 20.3 86 1.6 S 2 7 1 4 1010.0 - 0.0
31/12:00am 22.9 26.9 20.6 87 1.5 CALM 0 0 0 0 1010.3 1007.1 0.0
 
Date/Time
EST
Temp
°C
App
Temp
°C
Dew
Point
Rel
Hum
%
Delta-T
°C
Wind Press
QNH
hPa
Press
MSL
hPa
Rain
since 9 am
mm
Dir
 
Spd
km/h
Gust
km/h
Spd
kts
Gust
kts
30/11:30pm 22.9 26.1 20.6 87 1.5 SSE 4 11 2 6 1010.3 - 0.0
30/11:00pm 22.8 26.2 20.1 85 1.8 SE 2 6 1 3 1010.1 - 0.0
30/10:30pm 22.5 25.4 19.9 85 1.7 E 4 7 2 4 1010.0 - 0.0
30/10:00pm 23.0 26.4 19.4 80 2.3 CALM 0 0 0 0 1009.8 - 0.0
30/09:30pm 23.5 26.6 19.4 78 2.7 ESE 2 6 1 3 1009.5 - 0.0
30/09:00pm 23.9 27.1 18.8 73 3.3 CALM 0 0 0 0 1009.0 1005.8 0.0
30/08:30pm 24.0 27.0 18.4 71 3.6 CALM 0 4 0 2 1009.2 - 0.0
30/08:00pm 24.5 25.1 18.7 70 3.8 SSE 13 17 7 9 1009.0 - 0.0
30/07:30pm 24.1 26.3 19.2 74 3.2 SE 6 11 3 6 1008.4 - 0.0
30/07:00pm 24.2 26.6 18.8 72 3.5 SSE 4 7 2 4 1007.9 - 0.0
30/06:30pm 25.5 25.6 17.4 61 5.2 SE 13 20 7 11 1007.1 - 0.0
30/06:00pm 24.9 24.1 17.1 62 4.9 E 17 32 9 17 1007.2 1004.0 0.0
30/05:30pm 29.4 30.3 21.6 63 5.3 NNE 19 35 10 19 1005.8 - 0.0
30/05:00pm 29.7 30.3 21.4 61 5.7 NNE 20 30 11 16 1005.7 - 0.0
30/04:30pm 31.8 31.9 20.4 51 7.7 NNE 20 30 11 16 1005.4 - 0.0
30/04:00pm 34.3 31.5 12.6 27 13.3 WNW 19 32 10 17 1005.1 - 0.0
30/03:30pm 34.4 31.3 12.1 26 13.5 WNW 20 28 11 15 1005.2 - 0.0
30/03:00pm 33.9 31.8 12.3 27 13.2 NW 15 24 8 13 1005.5 1002.3 0.0
30/02:30pm 33.8 32.3 14.3 31 12.2 WNW 15 26 8 14 1005.8 - 0.0
30/02:00pm 33.8 31.8 13.8 30 12.4 WNW 17 24 9 13 1006.1 - 0.0
30/01:30pm 32.8 30.8 13.9 31 11.7 SW 17 26 9 14 1006.8 - 0.0
30/01:00pm 32.2 31.6 15.7 37 10.5 NW 13 24 7 13 1007.2 - 0.0
30/12:30pm 32.0 31.3 15.5 37 10.4 WNW 13 22 7 12 1007.7 - 0.0
30/12:00pm 31.4 30.3 15.4 38 10.1 WNW 15 22 8 12 1008.1 1004.9 0.0
30/11:30am 30.7 28.8 15.2 39 9.7 WNW 19 28 10 15 1008.5 - 0.0
30/11:00am 30.4 29.5 13.7 36 10.2 WSW 11 17 6 9 1008.9 - 0.0
30/10:30am 29.7 29.8 15.4 42 9.0 WSW 9 17 5 9 1009.0 - 0.0
30/10:00am 28.6 29.4 17.2 50 7.3 NNW 9 13 5 7 1009.2 - 0.0
30/09:30am 28.0 30.6 20.0 61 5.3 N 6 9 3 5 1009.4 - 0.0
30/09:00am 26.5 29.4 19.9 67 4.4 NE 4 7 2 4 1009.6 1006.4 0.0
30/08:30am 25.4 29.6 20.9 76 3.0 CALM 0 6 0 3 1009.5 - 0.0
30/08:00am 23.9 27.5 20.6 82 2.2 SE 2 6 1 3 1009.5 - 0.0
30/07:30am 23.1 26.6 19.5 80 2.3 CALM 0 0 0 0 1009.3 - 0.0
30/07:00am 21.8 25.4 19.7 88 1.4 CALM 0 0 0 0 1009.1 - 0.0
30/06:30am 20.4 23.7 19.2 93 0.8 CALM 0 0 0 0 1008.5 - 0.0
30/06:00am 20.0 22.9 18.1 89 1.2 CALM 0 0 0 0 1008.0 1004.8 0.0
30/05:30am 20.3 23.5 18.8 91 1.0 CALM 0 0 0 0 1007.7 - 0.0
30/05:00am 20.5 23.8 19.0 91 1.0 CALM 0 0 0 0 1007.5 - 0.0
30/04:30am 20.9 24.4 19.6 92 0.8 CALM 0 0 0 0 1007.4 - 0.0
30/04:00am 20.9 24.3 19.4 91 1.0 CALM 0 0 0 0 1007.2 - 0.0
30/03:30am 21.1 24.4 19.2 89 1.2 CALM 0 0 0 0 1007.3 - 0.0
30/03:00am 21.4 24.9 19.5 89 1.2 CALM 0 0 0 0 1007.1 1003.9 0.0
30/02:30am 21.9 25.8 20.4 91 1.0 CALM 0 0 0 0 1007.2 - 0.0
30/02:00am 21.7 25.4 20.0 90 1.1 CALM 0 0 0 0 1007.4 - 0.0
30/01:30am 21.8 25.4 19.7 88 1.4 CALM 0 0 0 0 1007.8 - 0.0
30/01:00am 21.9 25.5 19.8 88 1.4 CALM 0 0 0 0 1008.0 - 0.0
30/12:30am 22.3 25.9 19.7 85 1.7 CALM 0 6 0 3 1008.3 - 0.0
30/12:00am 22.5 25.7 19.7 84 1.8 S 2 7 1 4 1008.7 1005.4 0.0
 
Date/Time
EST
Temp
°C
App
Temp
°C
Dew
Point
Rel
Hum
%
Delta-T
°C
Wind Press
QNH
hPa
Press
MSL
hPa
Rain
since 9 am
mm
Dir
 
Spd
km/h
Gust
km/h
Spd
kts
Gust
kts
29/11:30pm 22.9 26.5 19.7 82 2.1 CALM 0 0 0 0 1008.9 - 0.0
29/11:00pm 22.9 25.2 19.5 81 2.2 W 6 7 3 4 1009.0 - 0.0
29/10:30pm 23.1 25.3 19.3 79 2.5 W 6 7 3 4 1008.8 - 0.0
29/10:00pm 23.2 25.9 18.7 76 2.9 WSW 2 7 1 4 1008.4 - 0.0
29/09:30pm 23.7 25.6 18.6 73 3.3 WNW 6 7 3 4 1008.0 - 0.0
29/09:00pm 23.7 26.8 18.6 73 3.3 CALM 0 0 0 0 1007.8 1004.6 0.0
29/08:30pm 24.5 27.4 18.2 68 4.0 CALM 0 0 0 0 1007.6 - 0.0
29/08:00pm 25.8 28.3 17.2 59 5.5 CALM 0 0 0 0 1007.4 - 0.0
29/07:30pm 26.5 27.0 15.5 50 6.8 N 7 11 4 6 1007.0 - 0.0
29/07:00pm 28.1 28.6 14.0 42 8.6 N 4 9 2 5 1006.7 - 0.0

Other Formats:

Comma delimited format used in spreadsheet applications
http://www.bom.gov.au/fwo/IDQ60801/IDQ60801.95286.axf

JavaScript Object Notation format (JSON) in row-major order
http://www.bom.gov.au/fwo/IDQ60801/IDQ60801.95286.json